createdAt,value
2023-05-15T00:02:03.410Z,92.26
2023-05-15T00:04:29.665Z,92.44
2023-05-15T00:06:56.037Z,92.50
2023-05-15T00:09:22.351Z,92.59
2023-05-15T00:11:48.702Z,92.58
2023-05-15T00:14:14.951Z,92.70
2023-05-15T00:16:41.309Z,92.88
2023-05-15T00:19:07.800Z,93.06
2023-05-15T00:21:34.192Z,93.18
2023-05-15T00:24:00.437Z,93.38
2023-05-15T00:26:26.692Z,93.46
2023-05-15T00:28:52.966Z,93.59
2023-05-15T00:31:20.297Z,93.58
2023-05-15T00:33:46.551Z,93.66
2023-05-15T00:36:12.941Z,93.83
2023-05-15T00:38:39.210Z,93.98
2023-05-15T00:41:09.557Z,94.15
2023-05-15T00:43:38.151Z,94.20
2023-05-15T00:46:05.903Z,94.28
2023-05-15T00:48:33.077Z,94.40
2023-05-15T00:50:59.745Z,94.52
2023-05-15T00:53:27.019Z,94.47
2023-05-15T00:55:57.001Z,94.58
2023-05-15T00:58:24.154Z,94.70
2023-05-15T01:00:50.542Z,94.76
2023-05-15T01:03:17.253Z,94.99
2023-05-15T01:05:44.156Z,95.04
2023-05-15T01:08:25.941Z,95.32
2023-05-15T01:10:52.588Z,95.38
2023-05-15T01:13:22.353Z,95.56
2023-05-15T01:15:49.234Z,95.83
2023-05-15T01:18:16.209Z,95.98
2023-05-15T01:20:45.803Z,96.11
2023-05-15T01:23:18.152Z,96.29
2023-05-15T01:25:53.957Z,96.30
2023-05-15T01:28:28.422Z,96.60
2023-05-15T01:30:55.322Z,96.59
2023-05-15T01:33:23.780Z,96.73
2023-05-15T01:35:55.186Z,96.67
2023-05-15T01:38:30.027Z,96.86
2023-05-15T01:40:59.352Z,97.12
2023-05-15T01:43:27.795Z,97.56
2023-05-15T01:45:55.406Z,97.52
2023-05-15T01:48:25.000Z,97.79
2023-05-15T01:50:54.082Z,97.92
2023-05-15T01:53:20.343Z,97.94
2023-05-15T01:55:48.082Z,98.15
2023-05-15T01:58:15.304Z,98.16
2023-05-15T02:00:42.170Z,98.35
2023-05-15T02:03:09.114Z,98.46
2023-05-15T02:05:35.500Z,98.66
2023-05-15T02:08:02.703Z,98.75
2023-05-15T02:10:29.930Z,98.72
2023-05-15T02:12:56.356Z,98.82
2023-05-15T02:15:22.617Z,99.00
2023-05-15T02:17:48.990Z,99.07
2023-05-15T02:20:15.379Z,99.09
2023-05-15T02:22:42.606Z,99.14
2023-05-15T02:25:08.979Z,99.28
2023-05-15T02:27:55.761Z,99.20
2023-05-15T02:30:21.981Z,99.42
2023-05-15T02:32:54.168Z,99.52
2023-05-15T02:35:26.822Z,99.61
2023-05-15T02:37:55.825Z,99.53
2023-05-15T02:40:23.777Z,99.72
2023-05-15T02:42:51.958Z,99.83
2023-05-15T02:45:19.196Z,99.96
2023-05-15T02:47:45.769Z,99.99
2023-05-15T02:50:12.228Z,100.00
2023-05-15T02:52:38.640Z,100.00
2023-05-15T02:55:05.383Z,100.00
2023-05-15T02:57:31.672Z,100.00
2023-05-15T02:59:57.992Z,100.00
2023-05-15T03:02:24.423Z,100.00
2023-05-15T03:04:51.116Z,100.00
2023-05-15T03:07:17.429Z,100.00
2023-05-15T03:09:43.710Z,100.00
2023-05-15T03:12:10.004Z,100.00
2023-05-15T03:14:36.354Z,100.00
2023-05-15T03:17:02.804Z,100.00
2023-05-15T03:19:29.191Z,100.00
2023-05-15T03:21:55.551Z,100.00
2023-05-15T03:24:21.926Z,100.00
2023-05-15T03:26:48.236Z,100.00
2023-05-15T03:29:14.505Z,100.00
2023-05-15T03:31:40.892Z,100.00
2023-05-15T03:34:07.317Z,100.00
2023-05-15T03:36:33.650Z,100.00
2023-05-15T03:38:59.953Z,100.00
2023-05-15T03:41:26.216Z,100.00
2023-05-15T03:43:52.488Z,100.00
2023-05-15T03:46:18.805Z,100.00
2023-05-15T03:48:45.192Z,100.00
2023-05-15T03:51:11.500Z,100.00
2023-05-15T03:53:38.062Z,100.00
2023-05-15T03:56:04.397Z,100.00
2023-05-15T03:58:30.617Z,100.00
2023-05-15T04:00:57.313Z,100.00
2023-05-15T04:03:23.699Z,100.00
2023-05-15T04:05:50.046Z,100.00
2023-05-15T04:08:16.355Z,100.00
2023-05-15T04:10:42.627Z,100.00
2023-05-15T04:13:08.921Z,100.00
2023-05-15T04:15:35.301Z,100.00
2023-05-15T04:18:01.663Z,100.00
2023-05-15T04:20:27.896Z,100.00
2023-05-15T04:22:54.286Z,100.00
2023-05-15T04:25:20.747Z,100.00
2023-05-15T04:27:47.102Z,100.00
2023-05-15T04:30:13.459Z,100.00
2023-05-15T04:32:40.208Z,100.00
2023-05-15T04:35:07.143Z,100.00
2023-05-15T04:37:33.400Z,100.00
2023-05-15T04:39:59.686Z,100.00
2023-05-15T04:42:26.086Z,100.00
2023-05-15T04:44:52.883Z,100.00
2023-05-15T04:47:19.176Z,100.00
2023-05-15T04:49:45.475Z,100.00
2023-05-15T04:52:11.788Z,100.00
2023-05-15T04:54:38.213Z,100.00
2023-05-15T04:57:04.625Z,100.00
2023-05-15T04:59:31.002Z,100.00
2023-05-15T05:01:57.332Z,100.00
2023-05-15T05:04:23.737Z,100.00
2023-05-15T05:06:50.191Z,100.00
2023-05-15T05:09:17.909Z,100.00
2023-05-15T05:11:44.181Z,100.00
2023-05-15T05:14:10.909Z,100.00
2023-05-15T05:16:37.473Z,100.00
2023-05-15T05:19:03.931Z,100.00
2023-05-15T05:21:30.519Z,100.00
2023-05-15T05:23:56.841Z,100.00
2023-05-15T05:26:23.230Z,100.00
2023-05-15T05:28:49.518Z,99.98
2023-05-15T05:31:15.841Z,99.69
2023-05-15T05:33:42.179Z,99.58
2023-05-15T05:36:08.695Z,99.46
2023-05-15T05:38:35.520Z,99.13
2023-05-15T05:41:02.010Z,99.29
2023-05-15T05:43:28.326Z,99.32
2023-05-15T05:45:54.593Z,99.16
2023-05-15T05:48:20.953Z,99.20
2023-05-15T05:50:47.255Z,98.92
2023-05-15T05:53:13.608Z,98.91
2023-05-15T05:55:40.188Z,98.96
2023-05-15T05:58:11.828Z,99.14
2023-05-15T06:00:44.651Z,98.85
2023-05-15T06:03:11.293Z,98.64
2023-05-15T06:05:37.593Z,98.71
2023-05-15T06:08:04.065Z,98.67
2023-05-15T06:10:30.319Z,98.56
2023-05-15T06:12:56.627Z,98.34
2023-05-15T06:15:23.118Z,97.96
2023-05-15T06:17:49.680Z,97.62
2023-05-15T06:20:16.044Z,97.63
2023-05-15T06:22:42.288Z,97.15
2023-05-15T06:25:08.707Z,96.89
2023-05-15T06:27:35.076Z,96.33
2023-05-15T06:30:01.351Z,96.01
2023-05-15T06:32:27.716Z,95.79
2023-05-15T06:34:54.099Z,95.44
2023-05-15T06:37:20.352Z,95.45
2023-05-15T06:39:46.635Z,95.16
2023-05-15T06:42:12.945Z,94.62
2023-05-15T06:44:40.758Z,94.55
2023-05-15T06:47:07.136Z,93.94
2023-05-15T06:49:33.489Z,93.44
2023-05-15T06:51:59.736Z,93.09
2023-05-15T06:54:25.991Z,92.42
2023-05-15T06:56:52.437Z,92.15
2023-05-15T06:59:18.766Z,92.12
2023-05-15T07:01:45.060Z,91.88
2023-05-15T07:04:14.275Z,92.17
2023-05-15T07:06:40.581Z,92.15
2023-05-15T07:09:06.825Z,91.81
2023-05-15T07:11:33.123Z,90.73
2023-05-15T07:13:59.411Z,90.77
2023-05-15T07:16:25.707Z,91.25
2023-05-15T07:18:52.264Z,91.54
2023-05-15T07:21:18.763Z,91.12
2023-05-15T07:23:45.090Z,91.23
2023-05-15T07:26:16.983Z,91.05
2023-05-15T07:28:46.685Z,91.56
2023-05-15T07:31:13.025Z,90.97
2023-05-15T07:33:39.315Z,90.08
2023-05-15T07:36:06.496Z,89.62
2023-05-15T07:38:32.850Z,89.35
2023-05-15T07:40:59.101Z,89.59
2023-05-15T07:43:25.361Z,89.41
2023-05-15T07:45:51.734Z,88.59
2023-05-15T07:48:18.936Z,88.30
2023-05-15T07:50:45.906Z,88.27
2023-05-15T07:53:15.411Z,88.40
2023-05-15T07:55:42.200Z,88.52
2023-05-15T07:58:08.678Z,88.59
2023-05-15T08:00:35.181Z,88.89
2023-05-15T08:03:01.689Z,88.67
2023-05-15T08:05:28.358Z,88.22
2023-05-15T08:07:55.596Z,88.50
2023-05-15T08:10:21.965Z,88.41
2023-05-15T08:12:48.743Z,87.38
2023-05-15T08:15:15.427Z,87.11
2023-05-15T08:17:41.989Z,87.65
2023-05-15T08:20:08.970Z,88.04
2023-05-15T08:22:35.398Z,87.85
2023-05-15T08:25:03.389Z,87.59
2023-05-15T08:27:32.747Z,87.62
2023-05-15T08:29:59.383Z,87.76
2023-05-15T08:36:52.527Z,88.73
2023-05-15T08:43:05.926Z,88.91
2023-05-15T08:45:34.933Z,88.91
2023-05-15T08:46:09.868Z,88.75
2023-05-15T08:48:04.934Z,88.39
2023-05-15T08:50:31.495Z,88.82
2023-05-15T08:52:57.942Z,89.07
2023-05-15T08:55:24.797Z,88.70
2023-05-15T08:57:51.351Z,88.49
2023-05-15T09:00:18.326Z,88.66
2023-05-15T09:02:44.777Z,89.18
2023-05-15T09:05:11.237Z,89.09
2023-05-15T09:07:38.084Z,88.51
2023-05-15T09:10:04.927Z,87.73
2023-05-15T09:12:33.513Z,87.46
2023-05-15T09:15:13.571Z,86.85
2023-05-15T09:17:40.031Z,86.86
2023-05-15T09:20:06.807Z,87.11
2023-05-15T09:22:34.030Z,86.86
2023-05-15T09:25:00.446Z,86.11
2023-05-15T09:27:26.840Z,85.96
2023-05-15T09:29:53.255Z,86.11
2023-05-15T09:32:19.767Z,86.33
2023-05-15T09:34:48.126Z,86.61
2023-05-15T09:37:32.589Z,86.37
2023-05-15T09:40:09.570Z,86.77
2023-05-15T09:42:36.285Z,86.27
2023-05-15T09:55:53.550Z,83.92
2023-05-15T09:58:20.060Z,83.58
2023-05-15T10:00:48.424Z,83.42
2023-05-15T10:03:19.053Z,82.72
2023-05-15T10:05:45.619Z,82.66
2023-05-15T10:08:11.997Z,82.50
2023-05-15T10:10:38.358Z,82.05
2023-05-15T10:13:06.358Z,82.17
2023-05-15T10:15:33.330Z,81.17
2023-05-15T10:17:59.675Z,80.89
2023-05-15T10:20:26.204Z,80.97
2023-05-15T10:22:54.260Z,81.65
2023-05-15T10:25:32.530Z,81.06
2023-05-15T10:27:59.088Z,80.56
2023-05-15T10:30:26.127Z,80.38
2023-05-15T10:32:53.187Z,80.25
2023-05-15T10:35:20.730Z,81.19
2023-05-15T10:37:47.802Z,80.79
2023-05-15T10:40:15.082Z,80.86
2023-05-15T10:42:42.114Z,81.17
2023-05-15T10:45:09.151Z,81.15
2023-05-15T10:47:36.534Z,81.59
2023-05-15T10:50:04.416Z,82.24
2023-05-15T10:52:31.762Z,82.40
2023-05-15T10:54:58.361Z,82.28
2023-05-15T10:57:24.739Z,82.25
2023-05-15T10:59:51.320Z,81.95
2023-05-15T11:02:29.263Z,82.48
2023-05-15T11:08:16.429Z,82.75
2023-05-15T11:10:42.826Z,83.71
2023-05-15T11:13:09.211Z,84.03
2023-05-15T11:15:42.579Z,84.57
2023-05-15T11:18:09.117Z,84.98
2023-05-15T11:20:39.704Z,85.09
2023-05-15T11:23:06.220Z,84.17
2023-05-15T11:25:34.198Z,83.46
2023-05-15T11:28:02.348Z,82.67
2023-05-15T11:30:36.086Z,82.31
2023-05-15T11:33:06.866Z,80.44
2023-05-15T11:35:36.478Z,78.41
2023-05-15T11:38:04.122Z,74.90
2023-05-15T11:40:31.778Z,71.55
2023-05-15T11:42:58.748Z,70.56
2023-05-15T11:45:25.117Z,69.54
2023-05-15T11:47:51.467Z,70.64
2023-05-15T11:50:21.474Z,69.92
2023-05-15T11:52:48.612Z,68.60
2023-05-15T11:55:15.610Z,67.66
2023-05-15T11:57:41.942Z,69.04
2023-05-15T12:00:08.610Z,70.10
2023-05-15T12:02:35.984Z,71.11
2023-05-15T12:05:02.553Z,71.33
2023-05-15T12:07:29.004Z,72.17
2023-05-15T12:09:55.426Z,72.92
2023-05-15T12:12:21.815Z,73.66
2023-05-15T12:14:48.162Z,74.19
2023-05-15T12:17:14.458Z,74.32
2023-05-15T12:19:41.753Z,74.38
2023-05-15T12:22:08.286Z,73.92
2023-05-15T12:24:36.976Z,72.78
2023-05-15T12:31:25.857Z,70.26
2023-05-15T12:40:21.667Z,69.55
2023-05-15T12:42:19.190Z,69.84
2023-05-15T12:44:45.721Z,70.30
2023-05-15T12:47:15.030Z,70.90
2023-05-15T12:49:41.737Z,72.09
2023-05-15T12:52:14.407Z,72.31
2023-05-15T12:54:40.669Z,73.05
2023-05-15T12:57:10.620Z,73.38
2023-05-15T12:59:38.119Z,73.94
2023-05-15T13:02:05.479Z,74.58
2023-05-15T13:04:33.034Z,75.13
2023-05-15T13:06:59.398Z,75.35
2023-05-15T13:09:25.851Z,75.19
2023-05-15T13:11:54.459Z,74.41
2023-05-15T13:14:21.088Z,72.83
2023-05-15T13:16:47.373Z,70.67
2023-05-15T13:19:13.910Z,67.69
2023-05-15T13:21:43.450Z,67.71
2023-05-15T13:24:09.931Z,67.93
2023-05-15T13:26:36.568Z,68.19
2023-05-15T13:29:02.832Z,69.18
2023-05-15T13:31:29.637Z,69.84
2023-05-15T13:33:56.216Z,69.70
2023-05-15T13:36:22.560Z,70.24
2023-05-15T13:38:48.890Z,70.91
2023-05-15T13:41:15.280Z,71.03
2023-05-15T13:43:41.525Z,71.23
2023-05-15T13:46:07.833Z,71.43
2023-05-15T13:48:34.199Z,70.98
2023-05-15T13:51:00.482Z,70.48
2023-05-15T13:53:26.777Z,69.25
2023-05-15T13:55:53.147Z,67.84
2023-05-15T13:58:19.447Z,67.82
2023-05-15T14:00:46.102Z,69.02
2023-05-15T14:03:15.256Z,69.12
2023-05-15T14:05:42.214Z,69.69
2023-05-15T14:08:08.550Z,69.35
2023-05-15T14:10:38.062Z,70.43
2023-05-15T14:23:50.023Z,72.81
2023-05-15T14:26:46.688Z,71.33
2023-05-15T14:29:58.963Z,71.10
2023-05-15T14:42:53.713Z,69.37
2023-05-15T14:45:53.866Z,69.44
2023-05-15T14:48:20.419Z,69.49
2023-05-15T14:50:46.815Z,69.52
2023-05-15T14:53:13.233Z,69.75
2023-05-15T14:55:39.657Z,70.06
2023-05-15T14:58:05.985Z,69.84
2023-05-15T15:00:32.286Z,69.40
2023-05-15T15:02:58.796Z,69.77
2023-05-15T15:05:25.172Z,69.64
2023-05-15T15:07:57.800Z,67.47
2023-05-15T15:10:24.316Z,66.38
2023-05-15T15:12:51.015Z,65.75
2023-05-15T15:15:18.021Z,65.78
2023-05-15T15:17:44.330Z,65.44
2023-05-15T15:20:10.822Z,65.59
2023-05-15T15:22:37.444Z,63.90
2023-05-15T15:25:03.944Z,60.69
2023-05-15T15:27:33.593Z,57.81
2023-05-15T15:29:59.942Z,52.49
2023-05-15T15:32:26.367Z,50.48
2023-05-15T15:34:52.708Z,51.47
2023-05-15T15:37:19.118Z,50.67
2023-05-15T15:39:45.379Z,51.05
2023-05-15T15:42:11.767Z,50.12
2023-05-15T15:44:38.076Z,49.57
2023-05-15T15:47:04.374Z,50.71
2023-05-15T15:49:30.691Z,50.71
2023-05-15T15:51:57.204Z,51.98
2023-05-15T15:54:23.551Z,52.72
2023-05-15T15:56:50.886Z,53.14
2023-05-15T15:59:17.247Z,54.73
2023-05-15T16:01:43.749Z,55.74
2023-05-15T16:04:10.226Z,56.47
2023-05-15T16:06:36.781Z,57.25
2023-05-15T16:09:03.368Z,57.86
2023-05-15T16:11:29.714Z,57.94
2023-05-15T16:13:56.101Z,58.84
2023-05-15T16:16:22.703Z,59.66
2023-05-15T16:18:49.358Z,60.60
2023-05-15T16:21:15.631Z,60.13
2023-05-15T16:23:41.978Z,59.82
2023-05-15T16:26:08.874Z,59.71
2023-05-15T16:28:35.257Z,59.79
2023-05-15T16:31:02.033Z,59.83
2023-05-15T16:33:29.301Z,59.96
2023-05-15T16:35:55.843Z,60.57
2023-05-15T16:38:22.304Z,61.07
2023-05-15T16:40:49.699Z,61.79
2023-05-15T16:43:16.020Z,62.02
2023-05-15T16:45:42.731Z,61.95
2023-05-15T16:48:09.218Z,62.02
2023-05-15T16:50:35.913Z,62.10
2023-05-15T16:53:02.790Z,62.16
2023-05-15T16:55:29.898Z,62.41
2023-05-15T16:57:56.236Z,62.82
2023-05-15T17:00:22.668Z,62.87
2023-05-15T17:02:49.435Z,62.59
2023-05-15T17:05:15.779Z,62.54
2023-05-15T17:07:42.819Z,62.52
2023-05-15T17:10:10.055Z,61.98
2023-05-15T17:12:36.712Z,61.80
2023-05-15T17:15:03.454Z,61.79
2023-05-15T17:17:29.912Z,61.74
2023-05-15T17:19:56.363Z,61.44
2023-05-15T17:22:23.251Z,60.96
2023-05-15T17:24:51.914Z,61.40
2023-05-15T17:27:19.015Z,61.51
2023-05-15T17:29:45.923Z,61.53
2023-05-15T17:32:12.697Z,61.68
2023-05-15T17:34:39.215Z,61.98
2023-05-15T17:37:05.573Z,62.15
2023-05-15T17:39:31.847Z,62.51
2023-05-15T17:41:58.115Z,62.72
2023-05-15T17:44:24.469Z,63.07
2023-05-15T17:46:50.892Z,63.27
2023-05-15T17:49:17.176Z,63.37
2023-05-15T17:51:43.593Z,63.43
2023-05-15T17:54:09.930Z,63.83
2023-05-15T17:56:36.236Z,64.00
2023-05-15T17:59:02.679Z,64.32
2023-05-15T18:01:29.334Z,64.66
2023-05-15T18:03:55.683Z,65.09
2023-05-15T18:06:22.175Z,65.53
2023-05-15T18:08:48.558Z,65.96
2023-05-15T18:11:22.545Z,66.31
2023-05-15T18:13:49.505Z,66.67
2023-05-15T18:16:15.895Z,67.03
2023-05-15T18:18:42.431Z,67.37
2023-05-15T18:21:08.924Z,67.86
2023-05-15T18:23:35.312Z,68.13
2023-05-15T18:26:01.644Z,68.57
2023-05-15T18:28:29.554Z,68.80
2023-05-15T18:30:57.036Z,69.08
2023-05-15T18:33:23.361Z,69.17
2023-05-15T18:35:49.693Z,69.53
2023-05-15T18:38:15.980Z,69.88
2023-05-15T18:40:45.172Z,70.20
2023-05-15T18:43:11.541Z,70.40
2023-05-15T18:45:38.014Z,70.58
2023-05-15T18:48:04.713Z,70.65
2023-05-15T18:50:31.128Z,70.82
2023-05-15T18:52:57.441Z,71.16
2023-05-15T18:55:24.001Z,71.41
2023-05-15T18:57:50.375Z,71.45
2023-05-15T19:00:26.622Z,71.77
2023-05-15T19:03:03.277Z,72.02
2023-05-15T19:05:29.636Z,72.36
2023-05-15T19:07:55.953Z,72.57
2023-05-15T19:10:22.311Z,72.74
2023-05-15T19:12:49.075Z,72.42
2023-05-15T19:15:15.460Z,72.45
2023-05-15T19:17:41.784Z,72.38
2023-05-15T19:20:08.342Z,72.36
2023-05-15T19:22:34.796Z,72.25
2023-05-15T19:25:01.159Z,72.39
2023-05-15T19:27:27.534Z,72.49
2023-05-15T19:29:53.814Z,72.30
2023-05-15T19:32:20.298Z,72.49
2023-05-15T19:34:46.696Z,72.45
2023-05-15T19:37:13.053Z,72.57
2023-05-15T19:39:39.336Z,72.50
2023-05-15T19:42:05.824Z,72.66
2023-05-15T19:44:32.209Z,72.85
2023-05-15T19:46:58.709Z,73.16
2023-05-15T19:49:25.099Z,73.39
2023-05-15T19:51:51.456Z,73.46
2023-05-15T19:54:17.822Z,73.50
2023-05-15T19:56:44.133Z,73.53
2023-05-15T19:59:11.728Z,73.73
2023-05-15T20:01:38.199Z,73.88
2023-05-15T20:04:04.622Z,74.07
2023-05-15T20:06:31.015Z,74.03
2023-05-15T20:08:57.305Z,74.07
2023-05-15T20:11:23.683Z,74.09
2023-05-15T20:13:50.224Z,74.11
2023-05-15T20:16:18.879Z,74.20
2023-05-15T20:18:45.655Z,74.25
2023-05-15T20:21:11.991Z,74.36
2023-05-15T20:23:38.281Z,74.52
2023-05-15T20:26:04.595Z,74.79
2023-05-15T20:28:31.012Z,74.75
2023-05-15T20:30:57.341Z,74.97
2023-05-15T20:33:24.016Z,75.17
2023-05-15T20:35:50.309Z,75.23
2023-05-15T20:38:16.874Z,75.40
2023-05-15T20:40:43.225Z,75.54
2023-05-15T20:43:09.561Z,75.79
2023-05-15T20:45:36.029Z,76.03
2023-05-15T20:48:04.999Z,76.14
2023-05-15T20:50:31.443Z,76.24
2023-05-15T20:52:57.756Z,76.47
2023-05-15T20:55:25.712Z,76.59
2023-05-15T20:57:52.103Z,76.97
2023-05-15T21:00:18.588Z,77.04
2023-05-15T21:02:45.474Z,77.28
2023-05-15T21:05:12.170Z,77.44
2023-05-15T21:07:38.598Z,77.81
2023-05-15T21:10:05.574Z,77.97
2023-05-15T21:12:31.853Z,78.38
2023-05-15T21:14:58.255Z,78.67
2023-05-15T21:17:24.590Z,78.86
2023-05-15T21:19:50.925Z,79.42
2023-05-15T21:22:17.249Z,79.74
2023-05-15T21:24:43.760Z,79.87
2023-05-15T21:27:10.016Z,80.17
2023-05-15T21:29:36.348Z,80.29
2023-05-15T21:32:04.699Z,80.77
2023-05-15T21:34:31.012Z,81.08
2023-05-15T21:36:57.293Z,81.40
2023-05-15T21:39:23.537Z,81.66
2023-05-15T21:41:49.978Z,82.00
2023-05-15T21:44:16.425Z,82.31
2023-05-15T21:46:42.713Z,82.42
2023-05-15T21:49:09.278Z,82.63
2023-05-15T21:51:35.593Z,82.89
2023-05-15T21:54:01.870Z,83.26
2023-05-15T21:56:28.375Z,83.57
2023-05-15T21:58:56.125Z,83.75
2023-05-15T22:01:23.523Z,83.83
2023-05-15T22:03:49.936Z,84.24
2023-05-15T22:06:16.304Z,84.61
2023-05-15T22:08:42.543Z,84.95
2023-05-15T22:11:08.807Z,85.22
2023-05-15T22:13:35.162Z,85.59
2023-05-15T22:16:01.802Z,85.66
2023-05-15T22:18:28.133Z,85.94
2023-05-15T22:20:54.496Z,86.27
2023-05-15T22:23:20.755Z,86.38
2023-05-15T22:25:46.976Z,86.37
2023-05-15T22:28:13.271Z,86.56
2023-05-15T22:30:39.548Z,86.89
2023-05-15T22:33:05.830Z,87.17
2023-05-15T22:35:32.153Z,87.39
2023-05-15T22:37:58.388Z,87.28
2023-05-15T22:40:24.768Z,87.56
2023-05-15T22:42:51.327Z,87.58
2023-05-15T22:45:18.689Z,87.91
2023-05-15T22:47:45.640Z,87.77
2023-05-15T22:50:12.052Z,88.02
2023-05-15T22:52:38.351Z,88.21
2023-05-15T22:55:04.940Z,88.35
2023-05-15T22:57:31.390Z,88.72
2023-05-15T22:59:57.699Z,88.90
2023-05-15T23:02:24.073Z,89.01
2023-05-15T23:04:50.410Z,89.22
2023-05-15T23:07:16.624Z,89.17
2023-05-15T23:09:43.251Z,89.55
2023-05-15T23:12:09.535Z,89.44
2023-05-15T23:14:35.843Z,89.79
2023-05-15T23:17:02.835Z,89.87
2023-05-15T23:19:29.091Z,89.91
2023-05-15T23:21:55.358Z,90.00
2023-05-15T23:24:21.665Z,90.38
2023-05-15T23:26:47.909Z,90.47
2023-05-15T23:29:14.161Z,90.65
2023-05-15T23:31:40.517Z,90.56
2023-05-15T23:34:06.860Z,90.77
2023-05-15T23:36:33.121Z,90.90
2023-05-15T23:38:59.344Z,90.73
2023-05-15T23:41:25.557Z,91.08
2023-05-15T23:43:51.808Z,91.07
2023-05-15T23:46:18.216Z,91.18
2023-05-15T23:48:44.601Z,91.12
2023-05-15T23:51:10.823Z,91.44
2023-05-15T23:53:37.222Z,91.59
2023-05-15T23:56:03.900Z,91.42
2023-05-15T23:58:30.169Z,91.42
